sensor_id;sensor_type;location;lat;lon;timestamp;pressure;altitude;pressure_sealevel;temperature;humidity
55932;BME280;41837;55.700;37.984;2023-07-29T00:01:34;99163.59;;;14.17;100.00
55932;BME280;41837;55.700;37.984;2023-07-29T00:04:03;99165.59;;;14.14;100.00
55932;BME280;41837;55.700;37.984;2023-07-29T00:06:30;99157.81;;;14.12;100.00
55932;BME280;41837;55.700;37.984;2023-07-29T00:08:57;99156.03;;;14.13;100.00
55932;BME280;41837;55.700;37.984;2023-07-29T00:11:23;99144.06;;;14.09;100.00
55932;BME280;41837;55.700;37.984;2023-07-29T00:13:49;99152.13;;;14.18;100.00
55932;BME280;41837;55.700;37.984;2023-07-29T00:16:17;99152.88;;;14.08;100.00
55932;BME280;41837;55.700;37.984;2023-07-29T00:18:44;99148.34;;;14.10;100.00
55932;BME280;41837;55.700;37.984;2023-07-29T00:21:10;99150.97;;;14.10;100.00
55932;BME280;41837;55.700;37.984;2023-07-29T00:23:36;99141.41;;;14.09;100.00
55932;BME280;41837;55.700;37.984;2023-07-29T00:26:03;99152.38;;;14.15;100.00
55932;BME280;41837;55.700;37.984;2023-07-29T00:28:29;99141.50;;;14.20;100.00
55932;BME280;41837;55.700;37.984;2023-07-29T00:30:56;99148.25;;;14.11;100.00
55932;BME280;41837;55.700;37.984;2023-07-29T00:33:22;99136.34;;;14.18;100.00
55932;BME280;41837;55.700;37.984;2023-07-29T00:35:49;99143.09;;;14.23;100.00
55932;BME280;41837;55.700;37.984;2023-07-29T00:38:16;99140.44;;;14.10;100.00
55932;BME280;41837;55.700;37.984;2023-07-29T00:40:42;99151.41;;;14.04;100.00
55932;BME280;41837;55.700;37.984;2023-07-29T00:43:09;99152.03;;;14.07;100.00
55932;BME280;41837;55.700;37.984;2023-07-29T00:45:35;99142.56;;;14.05;100.00
55932;BME280;41837;55.700;37.984;2023-07-29T00:48:03;99137.81;;;13.97;100.00
55932;BME280;41837;55.700;37.984;2023-07-29T00:50:31;99140.75;;;14.05;100.00
55932;BME280;41837;55.700;37.984;2023-07-29T00:53:00;99150.00;;;13.98;100.00
55932;BME280;41837;55.700;37.984;2023-07-29T00:55:26;99154.22;;;14.01;100.00
55932;BME280;41837;55.700;37.984;2023-07-29T00:57:54;99156.31;;;13.95;100.00
55932;BME280;41837;55.700;37.984;2023-07-29T01:00:21;99138.97;;;13.93;100.00
55932;BME280;41837;55.700;37.984;2023-07-29T01:02:48;99144.75;;;13.98;100.00
55932;BME280;41837;55.700;37.984;2023-07-29T01:05:16;99142.44;;;13.93;100.00
55932;BME280;41837;55.700;37.984;2023-07-29T01:07:58;99147.47;;;13.96;100.00
55932;BME280;41837;55.700;37.984;2023-07-29T01:13:08;99140.75;;;13.92;100.00
55932;BME280;41837;55.700;37.984;2023-07-29T01:15:53;99145.81;;;13.95;100.00
55932;BME280;41837;55.700;37.984;2023-07-29T01:18:31;99144.22;;;13.93;100.00
55932;BME280;41837;55.700;37.984;2023-07-29T01:21:00;99138.31;;;13.89;100.00
55932;BME280;41837;55.700;37.984;2023-07-29T01:23:34;99142.00;;;13.87;100.00
55932;BME280;41837;55.700;37.984;2023-07-29T01:26:01;99134.88;;;13.89;100.00
55932;BME280;41837;55.700;37.984;2023-07-29T01:28:28;99126.75;;;13.79;100.00
55932;BME280;41837;55.700;37.984;2023-07-29T01:31:16;99119.41;;;13.84;100.00
55932;BME280;41837;55.700;37.984;2023-07-29T01:33:58;99111.63;;;13.83;100.00
55932;BME280;41837;55.700;37.984;2023-07-29T01:36:28;99111.72;;;13.81;100.00
55932;BME280;41837;55.700;37.984;2023-07-29T01:38:56;99103.50;;;13.73;100.00
55932;BME280;41837;55.700;37.984;2023-07-29T01:41:24;99102.56;;;13.74;100.00
55932;BME280;41837;55.700;37.984;2023-07-29T01:43:52;99092.59;;;13.79;100.00
55932;BME280;41837;55.700;37.984;2023-07-29T01:46:18;99100.19;;;13.84;100.00
55932;BME280;41837;55.700;37.984;2023-07-29T01:48:47;99102.56;;;13.74;100.00
55932;BME280;41837;55.700;37.984;2023-07-29T01:51:14;99097.66;;;13.82;100.00
55932;BME280;41837;55.700;37.984;2023-07-29T01:53:40;99107.72;;;13.75;100.00
55932;BME280;41837;55.700;37.984;2023-07-29T01:56:07;99107.00;;;13.73;100.00
55932;BME280;41837;55.700;37.984;2023-07-29T01:58:36;99104.91;;;13.78;100.00
55932;BME280;41837;55.700;37.984;2023-07-29T02:01:02;99110.44;;;13.74;100.00
55932;BME280;41837;55.700;37.984;2023-07-29T02:03:28;99118.22;;;13.75;100.00
55932;BME280;41837;55.700;37.984;2023-07-29T02:05:54;99129.66;;;13.74;100.00
55932;BME280;41837;55.700;37.984;2023-07-29T02:08:21;99125.28;;;13.75;100.00
55932;BME280;41837;55.700;37.984;2023-07-29T02:10:48;99126.84;;;13.77;100.00
55932;BME280;41837;55.700;37.984;2023-07-29T02:13:15;99135.03;;;13.73;100.00
55932;BME280;41837;55.700;37.984;2023-07-29T02:15:41;99135.03;;;13.73;100.00
55932;BME280;41837;55.700;37.984;2023-07-29T02:18:07;99130.00;;;13.70;100.00
55932;BME280;41837;55.700;37.984;2023-07-29T02:20:34;99119.25;;;13.60;100.00
55932;BME280;41837;55.700;37.984;2023-07-29T02:23:00;99124.31;;;13.63;100.00
55932;BME280;41837;55.700;37.984;2023-07-29T02:25:27;99121.56;;;13.65;100.00
55932;BME280;41837;55.700;37.984;2023-07-29T02:27:53;99130.19;;;13.67;100.00
55932;BME280;41837;55.700;37.984;2023-07-29T02:30:21;99128.41;;;13.67;100.00
55932;BME280;41837;55.700;37.984;2023-07-29T02:32:47;99144.16;;;13.67;100.00
55932;BME280;41837;55.700;37.984;2023-07-29T02:35:14;99151.44;;;13.76;100.00
55932;BME280;41837;55.700;37.984;2023-07-29T02:37:41;99161.97;;;13.76;100.00
55932;BME280;41837;55.700;37.984;2023-07-29T02:40:08;99172.56;;;13.75;100.00
55932;BME280;41837;55.700;37.984;2023-07-29T02:42:34;99172.22;;;13.67;100.00
55932;BME280;41837;55.700;37.984;2023-07-29T02:45:01;99169.41;;;13.70;100.00
55932;BME280;41837;55.700;37.984;2023-07-29T02:47:30;99166.44;;;13.74;100.00
55932;BME280;41837;55.700;37.984;2023-07-29T02:49:57;99175.63;;;13.82;100.00
55932;BME280;41837;55.700;37.984;2023-07-29T02:52:24;99158.13;;;13.68;100.00
55932;BME280;41837;55.700;37.984;2023-07-29T02:54:50;99165.72;;;13.72;100.00
55932;BME280;41837;55.700;37.984;2023-07-29T02:57:16;99165.06;;;13.69;100.00
55932;BME280;41837;55.700;37.984;2023-07-29T02:59:43;99157.53;;;13.77;100.00
55932;BME280;41837;55.700;37.984;2023-07-29T03:02:10;99159.09;;;13.67;100.00
55932;BME280;41837;55.700;37.984;2023-07-29T03:04:37;99139.72;;;13.68;100.00
55932;BME280;41837;55.700;37.984;2023-07-29T03:07:03;99131.84;;;13.68;100.00
55932;BME280;41837;55.700;37.984;2023-07-29T03:09:30;99121.97;;;13.71;100.00
55932;BME280;41837;55.700;37.984;2023-07-29T03:11:56;99114.00;;;13.73;100.00
55932;BME280;41837;55.700;37.984;2023-07-29T03:14:22;99116.97;;;13.68;100.00
55932;BME280;41837;55.700;37.984;2023-07-29T03:16:49;99110.66;;;13.71;100.00
55932;BME280;41837;55.700;37.984;2023-07-29T03:19:15;99106.56;;;13.67;100.00
55932;BME280;41837;55.700;37.984;2023-07-29T03:21:43;99110.09;;;13.66;100.00
55932;BME280;41837;55.700;37.984;2023-07-29T03:24:09;99114.34;;;13.68;100.00
55932;BME280;41837;55.700;37.984;2023-07-29T03:26:35;99111.69;;;13.68;100.00
55932;BME280;41837;55.700;37.984;2023-07-29T03:29:02;99122.59;;;13.62;100.00
55932;BME280;41837;55.700;37.984;2023-07-29T03:31:28;99115.25;;;13.67;100.00
55932;BME280;41837;55.700;37.984;2023-07-29T03:33:54;99100.97;;;13.71;100.00
55932;BME280;41837;55.700;37.984;2023-07-29T03:36:21;99098.47;;;13.70;100.00
55932;BME280;41837;55.700;37.984;2023-07-29T03:38:47;99099.53;;;13.80;100.00
55932;BME280;41837;55.700;37.984;2023-07-29T03:41:13;99095.03;;;13.82;100.00
55932;BME280;41837;55.700;37.984;2023-07-29T03:43:40;99093.22;;;13.83;100.00
55932;BME280;41837;55.700;37.984;2023-07-29T03:46:06;99094.28;;;13.80;100.00
55932;BME280;41837;55.700;37.984;2023-07-29T03:48:32;99083.00;;;13.78;100.00
55932;BME280;41837;55.700;37.984;2023-07-29T03:50:59;99086.59;;;13.77;100.00
55932;BME280;41837;55.700;37.984;2023-07-29T03:53:25;99081.75;;;13.71;100.00
55932;BME280;41837;55.700;37.984;2023-07-29T03:55:51;99069.88;;;13.65;100.00
55932;BME280;41837;55.700;37.984;2023-07-29T03:58:17;99074.31;;;13.65;100.00
55932;BME280;41837;55.700;37.984;2023-07-29T04:00:44;99054.84;;;13.67;100.00
55932;BME280;41837;55.700;37.984;2023-07-29T04:03:10;99048.03;;;13.77;100.00
55932;BME280;41837;55.700;37.984;2023-07-29T04:05:37;99054.22;;;13.64;100.00
55932;BME280;41837;55.700;37.984;2023-07-29T04:08:03;99058.22;;;13.69;100.00
55932;BME280;41837;55.700;37.984;2023-07-29T04:10:30;99069.59;;;13.70;100.00
55932;BME280;41837;55.700;37.984;2023-07-29T04:12:58;99060.88;;;13.82;100.00
55932;BME280;41837;55.700;37.984;2023-07-29T04:15:24;99054.78;;;13.82;100.00
55932;BME280;41837;55.700;37.984;2023-07-29T04:17:51;99063.38;;;13.71;100.00
55932;BME280;41837;55.700;37.984;2023-07-29T04:20:17;99056.97;;;13.75;100.00
55932;BME280;41837;55.700;37.984;2023-07-29T04:22:43;99057.91;;;13.74;100.00
55932;BME280;41837;55.700;37.984;2023-07-29T04:25:09;99062.22;;;13.75;100.00
55932;BME280;41837;55.700;37.984;2023-07-29T04:27:36;99049.94;;;13.75;100.00
55932;BME280;41837;55.700;37.984;2023-07-29T04:30:02;99046.66;;;13.72;100.00
55932;BME280;41837;55.700;37.984;2023-07-29T04:32:31;99034.56;;;13.69;100.00
55932;BME280;41837;55.700;37.984;2023-07-29T04:34:57;99038.34;;;13.78;100.00
55932;BME280;41837;55.700;37.984;2023-07-29T04:37:23;99029.75;;;13.76;100.00
55932;BME280;41837;55.700;37.984;2023-07-29T04:39:50;99023.75;;;13.74;100.00
55932;BME280;41837;55.700;37.984;2023-07-29T04:42:16;99019.88;;;13.67;100.00
55932;BME280;41837;55.700;37.984;2023-07-29T04:44:42;99012.72;;;13.69;100.00
55932;BME280;41837;55.700;37.984;2023-07-29T04:47:09;99001.38;;;13.81;100.00
55932;BME280;41837;55.700;37.984;2023-07-29T04:49:36;98996.03;;;13.83;100.00
55932;BME280;41837;55.700;37.984;2023-07-29T04:52:02;98995.91;;;13.84;100.00
55932;BME280;41837;55.700;37.984;2023-07-29T04:54:28;98998.53;;;13.84;100.00
55932;BME280;41837;55.700;37.984;2023-07-29T04:56:54;98994.97;;;13.85;100.00
55932;BME280;41837;55.700;37.984;2023-07-29T04:59:20;98988.16;;;13.95;100.00
55932;BME280;41837;55.700;37.984;2023-07-29T05:01:47;98986.88;;;14.14;100.00
55932;BME280;41837;55.700;37.984;2023-07-29T05:04:13;98982.34;;;14.16;100.00
55932;BME280;41837;55.700;37.984;2023-07-29T05:06:40;98974.03;;;14.09;100.00
55932;BME280;41837;55.700;37.984;2023-07-29T05:09:17;98974.16;;;14.08;100.00
55932;BME280;41837;55.700;37.984;2023-07-29T05:11:44;98979.41;;;14.08;100.00
55932;BME280;41837;55.700;37.984;2023-07-29T05:14:14;98980.06;;;14.35;100.00
55932;BME280;41837;55.700;37.984;2023-07-29T05:16:42;98986.25;;;14.10;100.00
55932;BME280;41837;55.700;37.984;2023-07-29T05:19:08;98999.66;;;14.18;100.00
55932;BME280;41837;55.700;37.984;2023-07-29T05:21:36;99016.00;;;14.11;100.00
55932;BME280;41837;55.700;37.984;2023-07-29T05:24:03;99011.97;;;14.18;100.00
55932;BME280;41837;55.700;37.984;2023-07-29T05:26:30;99016.72;;;14.13;100.00
55932;BME280;41837;55.700;37.984;2023-07-29T05:28:56;99016.50;;;14.16;100.00
55932;BME280;41837;55.700;37.984;2023-07-29T05:31:23;99021.41;;;14.33;100.00
55932;BME280;41837;55.700;37.984;2023-07-29T05:33:49;99033.84;;;14.31;100.00
55932;BME280;41837;55.700;37.984;2023-07-29T05:36:16;99034.66;;;14.32;100.00
55932;BME280;41837;55.700;37.984;2023-07-29T05:38:42;99040.03;;;14.30;100.00
55932;BME280;41837;55.700;37.984;2023-07-29T05:41:08;99045.28;;;14.30;100.00
55932;BME280;41837;55.700;37.984;2023-07-29T05:43:35;99049.63;;;14.31;100.00
55932;BME280;41837;55.700;37.984;2023-07-29T05:46:01;99045.09;;;14.33;100.00
55932;BME280;41837;55.700;37.984;2023-07-29T05:48:28;99053.69;;;14.35;100.00
55932;BME280;41837;55.700;37.984;2023-07-29T05:50:55;99055.69;;;14.32;100.00
55932;BME280;41837;55.700;37.984;2023-07-29T05:53:21;99044.97;;;14.48;100.00
55932;BME280;41837;55.700;37.984;2023-07-29T05:55:48;99039.19;;;14.30;100.00
55932;BME280;41837;55.700;37.984;2023-07-29T05:58:15;99040.13;;;14.29;100.00
55932;BME280;41837;55.700;37.984;2023-07-29T06:00:41;99044.34;;;14.31;100.00
55932;BME280;41837;55.700;37.984;2023-07-29T06:03:08;99043.41;;;14.32;100.00
55932;BME280;41837;55.700;37.984;2023-07-29T06:05:35;99047.41;;;14.38;100.00
55932;BME280;41837;55.700;37.984;2023-07-29T06:08:02;99055.69;;;14.45;100.00
55932;BME280;41837;55.700;37.984;2023-07-29T06:10:29;99051.47;;;14.42;100.00
55932;BME280;41837;55.700;37.984;2023-07-29T06:12:55;99057.47;;;14.44;100.00
55932;BME280;41837;55.700;37.984;2023-07-29T06:15:21;99067.78;;;14.47;100.00
55932;BME280;41837;55.700;37.984;2023-07-29T06:17:49;99063.59;;;14.45;100.00
55932;BME280;41837;55.700;37.984;2023-07-29T06:20:15;99071.88;;;14.51;100.00
55932;BME280;41837;55.700;37.984;2023-07-29T06:22:41;99063.03;;;14.52;100.00
55932;BME280;41837;55.700;37.984;2023-07-29T06:25:09;99061.56;;;14.61;100.00
55932;BME280;41837;55.700;37.984;2023-07-29T06:27:35;99059.06;;;14.60;100.00
55932;BME280;41837;55.700;37.984;2023-07-29T06:30:02;99070.44;;;14.60;100.00
55932;BME280;41837;55.700;37.984;2023-07-29T06:32:30;99071.88;;;14.64;100.00
55932;BME280;41837;55.700;37.984;2023-07-29T06:34:56;99072.09;;;14.48;100.00
55932;BME280;41837;55.700;37.984;2023-07-29T06:37:23;99079.16;;;14.48;100.00
55932;BME280;41837;55.700;37.984;2023-07-29T06:39:50;99085.03;;;14.51;100.00
55932;BME280;41837;55.700;37.984;2023-07-29T06:42:16;99088.09;;;14.58;100.00
55932;BME280;41837;55.700;37.984;2023-07-29T06:44:43;99091.47;;;14.60;100.00
55932;BME280;41837;55.700;37.984;2023-07-29T06:47:12;99086.69;;;14.52;100.00
55932;BME280;41837;55.700;37.984;2023-07-29T06:49:39;99088.63;;;14.63;100.00
55932;BME280;41837;55.700;37.984;2023-07-29T06:52:05;99084.41;;;14.48;100.00
55932;BME280;41837;55.700;37.984;2023-07-29T06:54:31;99071.59;;;14.43;100.00
55932;BME280;41837;55.700;37.984;2023-07-29T06:56:58;99083.75;;;14.44;100.00
55932;BME280;41837;55.700;37.984;2023-07-29T06:59:24;99081.28;;;14.43;100.00
55932;BME280;41837;55.700;37.984;2023-07-29T07:01:53;99082.41;;;14.51;100.00
55932;BME280;41837;55.700;37.984;2023-07-29T07:04:19;99073.13;;;14.46;100.00
55932;BME280;41837;55.700;37.984;2023-07-29T07:06:46;99084.94;;;14.53;100.00
55932;BME280;41837;55.700;37.984;2023-07-29T07:09:13;99078.94;;;14.64;100.00
55932;BME280;41837;55.700;37.984;2023-07-29T07:11:39;99088.09;;;14.58;100.00
55932;BME280;41837;55.700;37.984;2023-07-29T07:14:06;99081.78;;;14.61;100.00
55932;BME280;41837;55.700;37.984;2023-07-29T07:16:32;99071.53;;;14.56;100.00
55932;BME280;41837;55.700;37.984;2023-07-29T07:18:58;99074.72;;;14.61;100.00
55932;BME280;41837;55.700;37.984;2023-07-29T07:21:25;99063.25;;;14.75;100.00
55932;BME280;41837;55.700;37.984;2023-07-29T07:23:51;99079.34;;;14.70;100.00
55932;BME280;41837;55.700;37.984;2023-07-29T07:26:17;99074.50;;;14.64;100.00
55932;BME280;41837;55.700;37.984;2023-07-29T07:28:44;99078.50;;;14.57;100.00
55932;BME280;41837;55.700;37.984;2023-07-29T07:31:10;99074.53;;;14.51;100.00
55932;BME280;41837;55.700;37.984;2023-07-29T07:33:36;99087.22;;;14.58;100.00
55932;BME280;41837;55.700;37.984;2023-07-29T07:36:03;99082.31;;;14.53;100.00
55932;BME280;41837;55.700;37.984;2023-07-29T07:38:29;99090.09;;;14.42;100.00
55932;BME280;41837;55.700;37.984;2023-07-29T07:40:56;99081.78;;;14.48;100.00
55932;BME280;41837;55.700;37.984;2023-07-29T07:43:23;99089.88;;;14.45;100.00
55932;BME280;41837;55.700;37.984;2023-07-29T07:45:50;99083.38;;;14.38;100.00
55932;BME280;41837;55.700;37.984;2023-07-29T07:48:16;99096.09;;;14.31;100.00
55932;BME280;41837;55.700;37.984;2023-07-29T07:50:43;99090.84;;;14.31;100.00
55932;BME280;41837;55.700;37.984;2023-07-29T07:53:12;99100.84;;;14.26;100.00
55932;BME280;41837;55.700;37.984;2023-07-29T07:55:38;99099.25;;;14.23;100.00
55932;BME280;41837;55.700;37.984;2023-07-29T07:58:05;99105.13;;;14.27;100.00
55932;BME280;41837;55.700;37.984;2023-07-29T08:00:34;99110.91;;;14.32;100.00
55932;BME280;41837;55.700;37.984;2023-07-29T08:03:01;99107.88;;;14.25;100.00
55932;BME280;41837;55.700;37.984;2023-07-29T08:05:28;99118.91;;;14.30;100.00
55932;BME280;41837;55.700;37.984;2023-07-29T08:07:56;99109.97;;;14.20;100.00
55932;BME280;41837;55.700;37.984;2023-07-29T08:10:23;99104.19;;;14.28;100.00
55932;BME280;41837;55.700;37.984;2023-07-29T08:12:50;99104.91;;;14.17;100.00
55932;BME280;41837;55.700;37.984;2023-07-29T08:15:16;99097.78;;;14.32;100.00
55932;BME280;41837;55.700;37.984;2023-07-29T08:17:42;99110.69;;;14.22;100.00
55932;BME280;41837;55.700;37.984;2023-07-29T08:20:09;99112.28;;;14.25;100.00
55932;BME280;41837;55.700;37.984;2023-07-29T08:22:35;99116.09;;;14.21;100.00
55932;BME280;41837;55.700;37.984;2023-07-29T08:25:02;99120.69;;;14.17;100.00
55932;BME280;41837;55.700;37.984;2023-07-29T08:27:30;99118.06;;;14.17;100.00
55932;BME280;41837;55.700;37.984;2023-07-29T08:29:56;99125.94;;;14.17;100.00
55932;BME280;41837;55.700;37.984;2023-07-29T08:32:22;99127.75;;;14.16;100.00
55932;BME280;41837;55.700;37.984;2023-07-29T08:34:48;99126.91;;;14.16;100.00
55932;BME280;41837;55.700;37.984;2023-07-29T08:37:15;99125.22;;;14.02;100.00
55932;BME280;41837;55.700;37.984;2023-07-29T08:39:42;99123.84;;;14.09;100.00
55932;BME280;41837;55.700;37.984;2023-07-29T08:42:11;99126.78;;;14.05;100.00
55932;BME280;41837;55.700;37.984;2023-07-29T08:44:44;99119.25;;;14.26;100.00
55932;BME280;41837;55.700;37.984;2023-07-29T08:47:12;99117.03;;;14.20;100.00
55932;BME280;41837;55.700;37.984;2023-07-29T08:49:44;99128.50;;;14.31;100.00
55932;BME280;41837;55.700;37.984;2023-07-29T08:52:13;99115.97;;;14.22;100.00
55932;BME280;41837;55.700;37.984;2023-07-29T08:54:41;99129.75;;;14.26;100.00
55932;BME280;41837;55.700;37.984;2023-07-29T08:57:07;99125.44;;;14.38;100.00
55932;BME280;41837;55.700;37.984;2023-07-29T08:59:35;99125.22;;;14.28;100.00
55932;BME280;41837;55.700;37.984;2023-07-29T09:02:02;99128.81;;;14.40;100.00
55932;BME280;41837;55.700;37.984;2023-07-29T09:04:28;99123.75;;;14.24;100.00
55932;BME280;41837;55.700;37.984;2023-07-29T09:06:55;99123.56;;;14.40;100.00
55932;BME280;41837;55.700;37.984;2023-07-29T09:09:22;99130.28;;;14.31;100.00
55932;BME280;41837;55.700;37.984;2023-07-29T09:11:49;99126.59;;;14.33;100.00
55932;BME280;41837;55.700;37.984;2023-07-29T09:14:16;99131.97;;;14.45;100.00
55932;BME280;41837;55.700;37.984;2023-07-29T09:16:43;99133.88;;;14.43;100.00
55932;BME280;41837;55.700;37.984;2023-07-29T09:19:10;99132.28;;;14.66;100.00
55932;BME280;41837;55.700;37.984;2023-07-29T09:21:40;99140.06;;;14.67;100.00
55932;BME280;41837;55.700;37.984;2023-07-29T09:24:07;99141.44;;;14.60;100.00
55932;BME280;41837;55.700;37.984;2023-07-29T09:26:34;99147.22;;;14.65;100.00
55932;BME280;41837;55.700;37.984;2023-07-29T09:29:01;99137.44;;;14.67;100.00
55932;BME280;41837;55.700;37.984;2023-07-29T09:31:28;99136.41;;;14.70;100.00
55932;BME280;41837;55.700;37.984;2023-07-29T09:33:59;99148.06;;;14.79;100.00
55932;BME280;41837;55.700;37.984;2023-07-29T09:36:27;99134.16;;;15.14;100.00
55932;BME280;41837;55.700;37.984;2023-07-29T09:38:54;99121.97;;;15.13;100.00
55932;BME280;41837;55.700;37.984;2023-07-29T09:41:25;99121.75;;;15.16;100.00
55932;BME280;41837;55.700;37.984;2023-07-29T09:44:00;99122.81;;;15.13;100.00
55932;BME280;41837;55.700;37.984;2023-07-29T09:46:35;99124.25;;;15.17;100.00
55932;BME280;41837;55.700;37.984;2023-07-29T09:49:07;99117.94;;;15.20;100.00
55932;BME280;41837;55.700;37.984;2023-07-29T09:51:39;99126.84;;;15.06;100.00
55932;BME280;41837;55.700;37.984;2023-07-29T09:54:07;99130.09;;;15.09;100.00
55932;BME280;41837;55.700;37.984;2023-07-29T09:56:39;99129.16;;;15.10;100.00
55932;BME280;41837;55.700;37.984;2023-07-29T09:59:07;99129.19;;;14.85;100.00
55932;BME280;41837;55.700;37.984;2023-07-29T10:01:34;99131.31;;;14.80;100.00
55932;BME280;41837;55.700;37.984;2023-07-29T10:04:03;99133.84;;;14.81;100.00
55932;BME280;41837;55.700;37.984;2023-07-29T10:06:29;99129.84;;;14.76;100.00
55932;BME280;41837;55.700;37.984;2023-07-29T10:08:57;99131.25;;;14.68;100.00
55932;BME280;41837;55.700;37.984;2023-07-29T10:11:24;99138.78;;;14.86;100.00
55932;BME280;41837;55.700;37.984;2023-07-29T10:13:51;99134.34;;;14.86;100.00
55932;BME280;41837;55.700;37.984;2023-07-29T10:16:18;99130.47;;;14.92;100.00
55932;BME280;41837;55.700;37.984;2023-07-29T10:18:46;99128.34;;;14.97;100.00
55932;BME280;41837;55.700;37.984;2023-07-29T10:21:13;99119.75;;;14.69;100.00
55932;BME280;41837;55.700;37.984;2023-07-29T10:23:43;99129.66;;;14.79;100.00
55932;BME280;41837;55.700;37.984;2023-07-29T10:26:16;99126.91;;;14.54;100.00
55932;BME280;41837;55.700;37.984;2023-07-29T10:28:47;99128.00;;;14.65;100.00
55932;BME280;41837;55.700;37.984;2023-07-29T10:31:18;99133.94;;;14.54;100.00
55932;BME280;41837;55.700;37.984;2023-07-29T10:33:45;99139.97;;;14.69;100.00
55932;BME280;41837;55.700;37.984;2023-07-29T10:36:12;99127.75;;;14.68;100.00
55932;BME280;41837;55.700;37.984;2023-07-29T10:38:40;99128.91;;;14.64;100.00
55932;BME280;41837;55.700;37.984;2023-07-29T10:41:07;99133.53;;;14.73;100.00
55932;BME280;41837;55.700;37.984;2023-07-29T10:43:35;99137.53;;;14.79;100.00
55932;BME280;41837;55.700;37.984;2023-07-29T10:46:19;99135.31;;;14.72;100.00
55932;BME280;41837;55.700;37.984;2023-07-29T10:53:52;99145.44;;;14.66;100.00
55932;BME280;41837;55.700;37.984;2023-07-29T10:56:28;99144.81;;;14.62;100.00
55932;BME280;41837;55.700;37.984;2023-07-29T10:58:56;99147.72;;;14.58;100.00
55932;BME280;41837;55.700;37.984;2023-07-29T11:01:29;99147.31;;;14.51;100.00
55932;BME280;41837;55.700;37.984;2023-07-29T11:15:28;99153.28;;;14.14;100.00
55932;BME280;41837;55.700;37.984;2023-07-29T11:17:59;99154.03;;;14.16;100.00
55932;BME280;41837;55.700;37.984;2023-07-29T11:20:28;99154.75;;;14.18;100.00
55932;BME280;41837;55.700;37.984;2023-07-29T11:23:00;99148.47;;;14.34;100.00
55932;BME280;41837;55.700;37.984;2023-07-29T11:25:29;99157.63;;;14.28;100.00
55932;BME280;41837;55.700;37.984;2023-07-29T11:27:57;99165.19;;;14.20;100.00
55932;BME280;41837;55.700;37.984;2023-07-29T11:30:24;99155.50;;;14.33;100.00
55932;BME280;41837;55.700;37.984;2023-07-29T11:32:55;99158.03;;;14.22;100.00
55932;BME280;41837;55.700;37.984;2023-07-29T11:35:22;99158.25;;;14.32;100.00
55932;BME280;41837;55.700;37.984;2023-07-29T11:37:50;99156.88;;;14.39;100.00
55932;BME280;41837;55.700;37.984;2023-07-29T11:40:21;99158.44;;;14.29;100.00
55932;BME280;41837;55.700;37.984;2023-07-29T11:42:50;99171.19;;;14.35;100.00
55932;BME280;41837;55.700;37.984;2023-07-29T11:45:17;99173.50;;;14.40;100.00
55932;BME280;41837;55.700;37.984;2023-07-29T11:47:45;99174.75;;;14.34;100.00
55932;BME280;41837;55.700;37.984;2023-07-29T11:50:13;99172.03;;;14.35;100.00
55932;BME280;41837;55.700;37.984;2023-07-29T11:52:44;99184.22;;;14.36;100.00
55932;BME280;41837;55.700;37.984;2023-07-29T11:55:12;99179.63;;;14.53;100.00
55932;BME280;41837;55.700;37.984;2023-07-29T11:57:41;99183.72;;;14.57;100.00
55932;BME280;41837;55.700;37.984;2023-07-29T12:00:09;99181.84;;;14.59;100.00
55932;BME280;41837;55.700;37.984;2023-07-29T12:02:41;99184.91;;;14.66;100.00
55932;BME280;41837;55.700;37.984;2023-07-29T12:05:11;99185.97;;;14.63;100.00
55932;BME280;41837;55.700;37.984;2023-07-29T12:07:39;99184.78;;;14.67;100.00
55932;BME280;41837;55.700;37.984;2023-07-29T12:10:06;99192.88;;;14.64;100.00
55932;BME280;41837;55.700;37.984;2023-07-29T12:12:44;99190.78;;;14.69;100.00
55932;BME280;41837;55.700;37.984;2023-07-29T12:15:11;99192.38;;;14.72;100.00
55932;BME280;41837;55.700;37.984;2023-07-29T12:17:41;99187.53;;;14.79;100.00
55932;BME280;41837;55.700;37.984;2023-07-29T12:20:09;99190.06;;;14.80;100.00
55932;BME280;41837;55.700;37.984;2023-07-29T12:22:37;99190.38;;;14.76;100.00
55932;BME280;41837;55.700;37.984;2023-07-29T12:25:04;99187.31;;;14.82;100.00
55932;BME280;41837;55.700;37.984;2023-07-29T12:27:32;99191.63;;;14.83;100.00
55932;BME280;41837;55.700;37.984;2023-07-29T12:30:01;99183.72;;;14.83;100.00
55932;BME280;41837;55.700;37.984;2023-07-29T12:32:32;99181.75;;;14.73;100.00
55932;BME280;41837;55.700;37.984;2023-07-29T12:34:59;99183.31;;;14.89;100.00
55932;BME280;41837;55.700;37.984;2023-07-29T12:37:32;99185.22;;;14.74;100.00
55932;BME280;41837;55.700;37.984;2023-07-29T12:39:59;99186.03;;;14.74;100.00
55932;BME280;41837;55.700;37.984;2023-07-29T12:42:25;99181.03;;;14.71;100.00
55932;BME280;41837;55.700;37.984;2023-07-29T12:44:51;99186.91;;;14.75;100.00
55932;BME280;41837;55.700;37.984;2023-07-29T12:47:18;99192.16;;;14.75;100.00
55932;BME280;41837;55.700;37.984;2023-07-29T12:49:45;99176.78;;;14.69;100.00
55932;BME280;41837;55.700;37.984;2023-07-29T12:52:15;99185.41;;;14.71;100.00
55932;BME280;41837;55.700;37.984;2023-07-29T12:54:41;99183.66;;;14.71;100.00
55932;BME280;41837;55.700;37.984;2023-07-29T12:57:10;99181.63;;;14.62;100.00
55932;BME280;41837;55.700;37.984;2023-07-29T12:59:36;99180.69;;;14.63;100.00
55932;BME280;41837;55.700;37.984;2023-07-29T13:02:02;99179.94;;;14.61;100.00